PWSweather.com
Personal Weather Stations
Station Observations
MIGLIARINO
Migliarino, FiscagliaIT 44027

MigliarinoFiscagliaIT 44027

Lat: 44.769682, Lon: 11.93112700000006

Elevation: 3

Station Type: PCE Fws 20

Latest ConditionsUpdated 7:35:03 AM GMT+01:01 Monday, Jan 22, 2018
Currently Today's Max Today's Min Today's Average
Temperature 34.2°F1.2°C 39.9°F4.4°C 34.2°F1.2°C 36.1°F2.3°C
Dew Point 26.7°F-2.9°C 33.9°F1.1°C 26.7°F-2.9°C 29.6°F-1.3°C
Winds 3.5 mph 5.6 kmh 5.8 mph NE9.3 kmh NE - 2.7 mph 4.3 kmh
Wind Gusts 5.8 mph9.3 kmh 9.2 mph14.8 kmh - -
Humidity 74% 86% 72% 77%
Pressure 29.98 in1015.2 mb 29.99 in1015.6 mb 29.95 in1014.2 mb -
Hour Temp Dew Point Humidity Winds Wind Gusts Pressure Precip Precip Rate Daily Precip Total
07:35 AM 34.2°F1.2°C 26.7°F-2.9°C 74% 3.5 mph 5.6 kmh 5.8 mph9.3 kmh 29.98 in1015.2 mb - 0.00 in0.0 mm 0.00 in0.0 mm
07:30 AM 34.2°F1.2°C 26.7°F-2.9°C 74% 2.3 mph 3.7 kmh 4.6 mph7.4 kmh 29.98 in1015.2 mb - 0.00 in0.0 mm 0.00 in0.0 mm
07:25 AM 34.2°F1.2°C 26.7°F-2.9°C 74% 2.3 mph N3.7 kmh N 4.6 mph7.4 kmh 29.98 in1015.2 mb - 0.00 in0.0 mm 0.00 in0.0 mm
07:20 AM 34.2°F1.2°C 26.7°F-2.9°C 74% 2.3 mph NW3.7 kmh NW 3.5 mph5.6 kmh 29.98 in1015.2 mb - 0.00 in0.0 mm 0.00 in0.0 mm
07:15 AM 34.3°F1.3°C 26.9°F-2.8°C 74% 2.3 mph NNW3.7 kmh NNW 3.5 mph5.6 kmh 29.98 in1015.2 mb - 0.00 in0.0 mm 0.00 in0.0 mm
07:10 AM 34.3°F1.3°C 26.9°F-2.8°C 74% 3.5 mph NNW5.6 kmh NNW 4.6 mph7.4 kmh 29.97 in1014.9 mb - 0.00 in0.0 mm 0.00 in0.0 mm
07:00 AM 34.7°F1.5°C 27.3°F-2.6°C 74% 2.3 mph W3.7 kmh W 3.5 mph5.6 kmh 29.97 in1014.9 mb - 0.00 in0.0 mm 0.00 in0.0 mm
06:55 AM 34.7°F1.5°C 27.3°F-2.6°C 74% 2.3 mph W3.7 kmh W 3.5 mph5.6 kmh 29.97 in1014.9 mb - 0.00 in0.0 mm 0.00 in0.0 mm
06:50 AM 34.7°F1.5°C 27.3°F-2.6°C 74% 3.5 mph N5.6 kmh N 5.8 mph9.3 kmh 29.97 in1014.9 mb - 0.00 in0.0 mm 0.00 in0.0 mm
06:45 AM 34.7°F1.5°C 27.3°F-2.6°C 74% 3.5 mph NNW5.6 kmh NNW 5.8 mph9.3 kmh 29.97 in1014.9 mb - 0.00 in0.0 mm 0.00 in0.0 mm
06:40 AM 34.7°F1.5°C 27.3°F-2.6°C 74% 3.5 mph NW5.6 kmh NW 4.6 mph7.4 kmh 29.97 in1014.9 mb - 0.00 in0.0 mm 0.00 in0.0 mm
06:35 AM 34.7°F1.5°C 26.9°F-2.8°C 73% 3.5 mph 5.6 kmh 5.8 mph9.3 kmh 29.96 in1014.6 mb - 0.00 in0.0 mm 0.00 in0.0 mm
06:30 AM 34.7°F1.5°C 26.9°F-2.8°C 73% 3.5 mph NNW5.6 kmh NNW 5.8 mph9.3 kmh 29.96 in1014.6 mb - 0.00 in0.0 mm 0.00 in0.0 mm
06:25 AM 34.9°F1.6°C 27.1°F-2.7°C 73% 3.5 mph 5.6 kmh 3.5 mph5.6 kmh 29.96 in1014.6 mb - 0.00 in0.0 mm 0.00 in0.0 mm
06:20 AM 34.9°F1.6°C 27.1°F-2.7°C 73% 3.5 mph 5.6 kmh 4.6 mph7.4 kmh 29.97 in1014.9 mb - 0.00 in0.0 mm 0.00 in0.0 mm
06:15 AM 34.9°F1.6°C 27.1°F-2.7°C 73% 3.5 mph N5.6 kmh N 5.8 mph9.3 kmh 29.97 in1014.9 mb - 0.00 in0.0 mm 0.00 in0.0 mm
06:10 AM 34.9°F1.6°C 27.1°F-2.7°C 73% 2.3 mph WNW3.7 kmh WNW 4.6 mph7.4 kmh 29.96 in1014.6 mb - 0.00 in0.0 mm 0.00 in0.0 mm
06:00 AM 34.9°F1.6°C 26.8°F-2.9°C 72% 4.6 mph WNW7.4 kmh WNW 5.8 mph9.3 kmh 29.96 in1014.6 mb - 0.00 in0.0 mm 0.00 in0.0 mm
05:55 AM 34.9°F1.6°C 26.8°F-2.9°C 72% 3.5 mph N5.6 kmh N 5.8 mph9.3 kmh 29.96 in1014.6 mb - 0.00 in0.0 mm 0.00 in0.0 mm
05:50 AM 35.1°F1.7°C 26.9°F-2.8°C 72% 3.5 mph NNW5.6 kmh NNW 4.6 mph7.4 kmh 29.96 in1014.6 mb - 0.00 in0.0 mm 0.00 in0.0 mm
05:45 AM 35.2°F1.8°C 27.1°F-2.7°C 72% 3.5 mph N5.6 kmh N 4.6 mph7.4 kmh 29.97 in1014.9 mb - 0.00 in0.0 mm 0.00 in0.0 mm
05:40 AM 35.4°F1.9°C 27.3°F-2.6°C 72% 2.3 mph N3.7 kmh N 4.6 mph7.4 kmh 29.96 in1014.6 mb - 0.00 in0.0 mm 0.00 in0.0 mm
05:35 AM 35.4°F1.9°C 27.3°F-2.6°C 72% 5.8 mph N9.3 kmh N 8.1 mph13.0 kmh 29.96 in1014.6 mb - 0.00 in0.0 mm 0.00 in0.0 mm
05:30 AM 35.4°F1.9°C 27.3°F-2.6°C 72% 3.5 mph N5.6 kmh N 6.9 mph11.1 kmh 29.95 in1014.2 mb - 0.00 in0.0 mm 0.00 in0.0 mm
05:25 AM 35.4°F1.9°C 27.6°F-2.4°C 73% 3.5 mph N5.6 kmh N 5.8 mph9.3 kmh 29.95 in1014.2 mb - 0.00 in0.0 mm 0.00 in0.0 mm
05:20 AM 35.4°F1.9°C 27.6°F-2.4°C 73% 5.8 mph NW9.3 kmh NW 5.8 mph9.3 kmh 29.96 in1014.6 mb - 0.00 in0.0 mm 0.00 in0.0 mm
05:15 AM 35.1°F1.7°C 27.6°F-2.4°C 74% 5.8 mph 9.3 kmh 8.1 mph13.0 kmh 29.96 in1014.6 mb - 0.00 in0.0 mm 0.00 in0.0 mm
05:10 AM 35.1°F1.7°C 27.6°F-2.4°C 74% 5.8 mph SW9.3 kmh SW 8.1 mph13.0 kmh 29.96 in1014.6 mb - 0.00 in0.0 mm 0.00 in0.0 mm
05:00 AM 35.2°F1.8°C 28.1°F-2.2°C 75% 5.8 mph N9.3 kmh N 9.2 mph14.8 kmh 29.96 in1014.6 mb - 0.00 in0.0 mm 0.00 in0.0 mm
04:55 AM 35.2°F1.8°C 28.4°F-2.0°C 76% 5.8 mph N9.3 kmh N 8.1 mph13.0 kmh 29.97 in1014.9 mb - 0.00 in0.0 mm 0.00 in0.0 mm
04:50 AM 35.2°F1.8°C 28.8°F-1.8°C 77% 4.6 mph 7.4 kmh 6.9 mph11.1 kmh 29.96 in1014.6 mb - 0.00 in0.0 mm 0.00 in0.0 mm
04:45 AM 35.2°F1.8°C 29.1°F-1.6°C 78% 3.5 mph NW5.6 kmh NW 5.8 mph9.3 kmh 29.97 in1014.9 mb - 0.00 in0.0 mm 0.00 in0.0 mm
04:40 AM 35.2°F1.8°C 29.4°F-1.4°C 79% 5.8 mph N9.3 kmh N 8.1 mph13.0 kmh 29.96 in1014.6 mb - 0.00 in0.0 mm 0.00 in0.0 mm
04:35 AM 35.3°F1.8°C 29.4°F-1.4°C 79% 5.8 mph NW9.3 kmh NW 8.1 mph13.0 kmh 29.97 in1014.9 mb - 0.00 in0.0 mm 0.00 in0.0 mm
04:30 AM 35.4°F1.9°C 29.6°F-1.3°C 79% 5.8 mph N9.3 kmh N 8.1 mph13.0 kmh 29.97 in1014.9 mb - 0.00 in0.0 mm 0.00 in0.0 mm
04:25 AM 35.6°F2.0°C 29.4°F-1.4°C 78% 5.8 mph N9.3 kmh N 6.9 mph11.1 kmh 29.97 in1014.9 mb - 0.00 in0.0 mm 0.00 in0.0 mm
04:20 AM 35.8°F2.1°C 29.9°F-1.2°C 79% 4.6 mph N7.4 kmh N 5.8 mph9.3 kmh 29.97 in1014.9 mb - 0.00 in0.0 mm 0.00 in0.0 mm
04:15 AM 36.0°F2.2°C 30.1°F-1.1°C 79% 3.5 mph 5.6 kmh 5.8 mph9.3 kmh 29.97 in1014.9 mb - 0.00 in0.0 mm 0.00 in0.0 mm
04:10 AM 36.0°F2.2°C 30.1°F-1.1°C 79% 4.6 mph N7.4 kmh N 6.9 mph11.1 kmh 29.96 in1014.6 mb - 0.00 in0.0 mm 0.00 in0.0 mm
04:00 AM 36.7°F2.6°C 31.1°F-0.5°C 80% 2.3 mph N3.7 kmh N 5.8 mph9.3 kmh 29.96 in1014.6 mb - 0.00 in0.0 mm 0.00 in0.0 mm
03:55 AM 36.9°F2.7°C 31.3°F-0.4°C 80% 3.5 mph N5.6 kmh N 6.9 mph11.1 kmh 29.96 in1014.6 mb - 0.00 in0.0 mm 0.00 in0.0 mm
03:50 AM 37.0°F2.8°C 31.8°F-0.1°C 81% 4.6 mph N7.4 kmh N 6.9 mph11.1 kmh 29.96 in1014.6 mb - 0.00 in0.0 mm 0.00 in0.0 mm
03:45 AM 37.6°F3.1°C 33.5°F0.8°C 85% 3.5 mph 5.6 kmh 8.1 mph13.0 kmh 29.96 in1014.6 mb - 0.00 in0.0 mm 0.00 in0.0 mm
03:40 AM 37.8°F3.2°C 33.9°F1.1°C 86% 5.8 mph WNW9.3 kmh WNW 9.2 mph14.8 kmh 29.96 in1014.6 mb - 0.00 in0.0 mm 0.00 in0.0 mm
03:35 AM 37.8°F3.2°C 33.9°F1.1°C 86% 5.8 mph NNW9.3 kmh NNW 8.1 mph13.0 kmh 29.96 in1014.6 mb - 0.00 in0.0 mm 0.00 in0.0 mm
03:30 AM 37.8°F3.2°C 33.9°F1.1°C 86% 5.8 mph N9.3 kmh N 6.9 mph11.1 kmh 29.96 in1014.6 mb - 0.00 in0.0 mm 0.00 in0.0 mm
03:25 AM 37.6°F3.1°C 33.8°F1.0°C 86% 5.8 mph NE9.3 kmh NE 6.9 mph11.1 kmh 29.95 in1014.2 mb - 0.00 in0.0 mm 0.00 in0.0 mm
03:20 AM 37.0°F2.8°C 32.1°F0.1°C 82% 3.5 mph NE5.6 kmh NE 8.1 mph13.0 kmh 29.96 in1014.6 mb - 0.00 in0.0 mm 0.00 in0.0 mm
03:15 AM 36.9°F2.7°C 31.9°F-0.1°C 82% 3.5 mph N5.6 kmh N 4.6 mph7.4 kmh 29.96 in1014.6 mb - 0.00 in0.0 mm 0.00 in0.0 mm
03:10 AM 37.0°F2.8°C 32.1°F0.1°C 82% 1.2 mph 1.9 kmh 2.3 mph3.7 kmh 29.96 in1014.6 mb - 0.00 in0.0 mm 0.00 in0.0 mm
03:00 AM 36.7°F2.6°C 31.7°F-0.2°C 82% Calm Calm 2.3 mph3.7 kmh 29.97 in1014.9 mb - 0.00 in0.0 mm 0.00 in0.0 mm
02:55 AM 36.7°F2.6°C 31.4°F-0.3°C 81% Calm Calm -- 29.97 in1014.9 mb - 0.00 in0.0 mm 0.00 in0.0 mm
02:50 AM 36.7°F2.6°C 31.4°F-0.3°C 81% 1.2 mph N1.9 kmh N 3.5 mph5.6 kmh 29.97 in1014.9 mb - 0.00 in0.0 mm 0.00 in0.0 mm
02:45 AM 36.1°F2.3°C 30.9°F-0.6°C 81% 2.3 mph NW3.7 kmh NW 3.5 mph5.6 kmh 29.96 in1014.6 mb - 0.00 in0.0 mm 0.00 in0.0 mm
02:40 AM 36.1°F2.3°C 30.9°F-0.6°C 81% 1.2 mph NW1.9 kmh NW 1.2 mph1.9 kmh 29.97 in1014.9 mb - 0.00 in0.0 mm 0.00 in0.0 mm
02:35 AM 36.1°F2.3°C 30.9°F-0.6°C 81% 1.2 mph NW1.9 kmh NW 1.2 mph1.9 kmh 29.97 in1014.9 mb - 0.00 in0.0 mm 0.00 in0.0 mm
02:30 AM 36.7°F2.6°C 31.4°F-0.3°C 81% Calm Calm 1.2 mph1.9 kmh 29.98 in1015.2 mb - 0.00 in0.0 mm 0.00 in0.0 mm
02:25 AM 36.7°F2.6°C 31.4°F-0.3°C 81% 1.2 mph NW1.9 kmh NW 2.3 mph3.7 kmh 29.98 in1015.2 mb - 0.00 in0.0 mm 0.00 in0.0 mm
02:20 AM 36.9°F2.7°C 31.6°F-0.2°C 81% 1.2 mph N1.9 kmh N 2.3 mph3.7 kmh 29.98 in1015.2 mb - 0.00 in0.0 mm 0.00 in0.0 mm
02:15 AM 36.7°F2.6°C 31.1°F-0.5°C 80% 1.2 mph NW1.9 kmh NW 3.5 mph5.6 kmh 29.98 in1015.2 mb - 0.00 in0.0 mm 0.00 in0.0 mm
02:10 AM 36.1°F2.3°C 30.6°F-0.8°C 80% 1.2 mph WNW1.9 kmh WNW 3.5 mph5.6 kmh 29.98 in1015.2 mb - 0.00 in0.0 mm 0.00 in0.0 mm
02:00 AM 36.7°F2.6°C 31.1°F-0.5°C 80% 1.2 mph NW1.9 kmh NW 2.3 mph3.7 kmh 29.99 in1015.6 mb - 0.00 in0.0 mm 0.00 in0.0 mm
01:55 AM 36.7°F2.6°C 30.8°F-0.7°C 79% 2.3 mph WNW3.7 kmh WNW 3.5 mph5.6 kmh 29.98 in1015.2 mb - 0.00 in0.0 mm 0.00 in0.0 mm
01:50 AM 37.0°F2.8°C 31.1°F-0.5°C 79% 2.3 mph NW3.7 kmh NW 3.5 mph5.6 kmh 29.98 in1015.2 mb - 0.00 in0.0 mm 0.00 in0.0 mm
01:45 AM 36.9°F2.7°C 31.0°F-0.6°C 79% 1.2 mph NW1.9 kmh NW 2.3 mph3.7 kmh 29.97 in1014.9 mb - 0.00 in0.0 mm 0.00 in0.0 mm
01:40 AM 36.7°F2.6°C 30.5°F-0.8°C 78% 1.2 mph W1.9 kmh W 1.2 mph1.9 kmh 29.98 in1015.2 mb - 0.00 in0.0 mm 0.00 in0.0 mm
01:35 AM 36.7°F2.6°C 30.5°F-0.8°C 78% 1.2 mph NW1.9 kmh NW 1.2 mph1.9 kmh 29.98 in1015.2 mb - 0.00 in0.0 mm 0.00 in0.0 mm
01:30 AM 36.7°F2.6°C 30.5°F-0.8°C 78% Calm Calm 1.2 mph1.9 kmh 29.98 in1015.2 mb - 0.00 in0.0 mm 0.00 in0.0 mm
01:25 AM 36.7°F2.6°C 30.1°F-1.1°C 77% Calm Calm 1.2 mph1.9 kmh 29.98 in1015.2 mb - 0.00 in0.0 mm 0.00 in0.0 mm
01:20 AM 36.9°F2.7°C 30.3°F-0.9°C 77% Calm Calm 1.2 mph1.9 kmh 29.98 in1015.2 mb - 0.00 in0.0 mm 0.00 in0.0 mm
01:15 AM 36.9°F2.7°C 30.3°F-0.9°C 77% 1.2 mph SE1.9 kmh SE 2.3 mph3.7 kmh 29.97 in1014.9 mb - 0.00 in0.0 mm 0.00 in0.0 mm
01:10 AM 36.9°F2.7°C 30.0°F-1.1°C 76% Calm Calm 1.2 mph1.9 kmh 29.98 in1015.2 mb - 0.00 in0.0 mm 0.00 in0.0 mm
01:00 AM 37.0°F2.8°C 30.2°F-1.0°C 76% Calm Calm -- 29.97 in1014.9 mb - 0.00 in0.0 mm 0.00 in0.0 mm
12:55 AM 36.9°F2.7°C 30.0°F-1.1°C 76% 1.2 mph S1.9 kmh S 1.2 mph1.9 kmh 29.97 in1014.9 mb - 0.00 in0.0 mm 0.00 in0.0 mm
12:50 AM 37.0°F2.8°C 29.8°F-1.2°C 75% Calm Calm 1.2 mph1.9 kmh 29.97 in1014.9 mb - 0.00 in0.0 mm 0.00 in0.0 mm
12:45 AM 36.9°F2.7°C 29.7°F-1.3°C 75% Calm Calm 1.2 mph1.9 kmh 29.97 in1014.9 mb - 0.00 in0.0 mm 0.00 in0.0 mm
12:40 AM 36.9°F2.7°C 29.3°F-1.5°C 74% 1.2 mph SE1.9 kmh SE 1.2 mph1.9 kmh 29.97 in1014.9 mb - 0.00 in0.0 mm 0.00 in0.0 mm
12:35 AM 37.0°F2.8°C 29.5°F-1.4°C 74% Calm Calm 1.2 mph1.9 kmh 29.97 in1014.9 mb - 0.00 in0.0 mm 0.00 in0.0 mm
12:30 AM 37.4°F3.0°C 31.2°F-0.4°C 78% Calm Calm 1.2 mph1.9 kmh 29.98 in1015.2 mb - 0.00 in0.0 mm 0.00 in0.0 mm
12:25 AM 37.6°F3.1°C 31.3°F-0.4°C 78% Calm Calm 1.2 mph1.9 kmh 29.97 in1014.9 mb - 0.00 in0.0 mm 0.00 in0.0 mm
12:20 AM 37.6°F3.1°C 31.0°F-0.6°C 77% 1.2 mph NE1.9 kmh NE 1.2 mph1.9 kmh 29.97 in1014.9 mb - 0.00 in0.0 mm 0.00 in0.0 mm
12:15 AM 37.9°F3.3°C 31.4°F-0.3°C 77% Calm Calm 1.2 mph1.9 kmh 29.98 in1015.2 mb - 0.00 in0.0 mm 0.00 in0.0 mm
12:10 AM 38.7°F3.7°C 32.4°F0.2°C 78% 1.2 mph ENE1.9 kmh ENE 3.5 mph5.6 kmh 29.96 in1014.6 mb - 0.00 in0.0 mm 0.00 in0.0 mm
12:00 AM 39.9°F4.4°C 33.6°F0.9°C 78% 1.2 mph NW1.9 kmh NW 2.3 mph3.7 kmh 29.97 in1014.9 mb - 0.00 in0.0 mm 0.00 in0.0 mm